»·PEaware :: SKW7574 KSFO-KRDD

SKW7574 :: KSFO-KRDD

FLIGHT INFORMATION

Flight Status: Arrived
Operator:
SkyWest Airlines
More flights by this operator :: More flights under this callsign
Pilot: Skye D. (10623)
Aircraft: CANADAIR CL-600 CRJ-200
(CRJ2)
More flights by this aircraft type
Origin: KSFO San Francisco Intl
United States
Destination: KRDD Redding Mun
United States
More flights between these airports :: More routes between these airports
Route: +TRUKN2 DEDHD RBL
File this flight plan on PilotEdge
Remarks:
Altitude:
(Current/Filed)
20,000ft
Speed:
(Current/Filed)
367kts
Departed: 28-Jan-18 10:27 AM
Arrived: 28-Jan-18 11:19 AM
Distance/Time
Traveled:
173nm/0:52
Distance/Time
To Go:
Arrived

Flight Plot

Page will automatically refresh every two minutes.

Flight plan parsing failed; only flown route is shown


Map Options




Map Legend


Flown Route
Filed Route
Departure Airport
Arrival Airport
Navaid (VOR, NDB)
Fix

Horizontal Profiles

Position Reports

Time Latitude Longitude Heading Altitude Ground
Speed
28-Jan-18 10:00 37.621650 -122.388833 237 18ft 0kts
28-Jan-18 10:01 37.621650 -122.388833 237 18ft 0kts
28-Jan-18 10:02 37.621650 -122.388833 237 18ft 0kts
28-Jan-18 10:03 37.621650 -122.388833 237 18ft 0kts
28-Jan-18 10:04 37.621650 -122.388833 237 18ft 0kts
28-Jan-18 10:05 37.621650 -122.388833 237 18ft 0kts
28-Jan-18 10:06 37.621650 -122.388833 237 18ft 0kts
28-Jan-18 10:07 37.621650 -122.388833 237 18ft 0kts
28-Jan-18 10:08 37.621650 -122.388833 237 18ft 0kts
28-Jan-18 10:09 37.621650 -122.388833 237 18ft 0kts
28-Jan-18 10:10 37.621650 -122.388833 237 18ft 0kts
28-Jan-18 10:11 37.621650 -122.388833 237 18ft 0kts
28-Jan-18 10:12 37.621650 -122.388833 237 18ft 0kts
28-Jan-18 10:13 37.621650 -122.388833 237 18ft 0kts
28-Jan-18 10:14 37.621650 -122.388833 237 18ft 0kts
28-Jan-18 10:15 37.621650 -122.388833 237 18ft 0kts
28-Jan-18 10:16 37.621650 -122.388833 237 18ft 0kts
28-Jan-18 10:17 37.621650 -122.388833 237 18ft 0kts
28-Jan-18 10:18 37.621650 -122.388833 237 18ft 0kts
28-Jan-18 10:19 37.621650 -122.388833 237 18ft 0kts
28-Jan-18 10:20 37.621650 -122.388833 237 18ft 0kts
28-Jan-18 10:21 37.621650 -122.388833 237 18ft 0kts
28-Jan-18 10:22 37.621660 -122.388811 242 18ft 1kts
28-Jan-18 10:23 37.622058 -122.388457 181 18ft 2kts
28-Jan-18 10:24 37.622471 -122.388767 117 18ft 0kts
28-Jan-18 10:25 37.622471 -122.388767 117 18ft 0kts
28-Jan-18 10:26 37.622471 -122.388767 117 18ft 0kts
28-Jan-18 10:27 37.622079 -122.387762 115 18ft 18kts
28-Jan-18 10:28 37.619447 -122.381411 119 18ft 20kts
28-Jan-18 10:29 37.615486 -122.380356 211 18ft 18kts
28-Jan-18 10:30 37.611092 -122.383233 207 18ft 16kts
28-Jan-18 10:31 37.609089 -122.383446 122 18ft 0kts
28-Jan-18 10:32 37.608991 -122.382171 25 18ft 8kts
28-Jan-18 10:33 37.635994 -122.360595 49 1333ft 166kts
28-Jan-18 10:34 37.662453 -122.314792 53 3522ft 224kts
28-Jan-18 10:35 37.698468 -122.251204 55 6460ft 256kts
28-Jan-18 10:36 37.750624 -122.211128 9 9308ft 267kts
28-Jan-18 10:37 37.819513 -122.198197 7 10925ft 316kts
28-Jan-18 10:38 37.906950 -122.183634 6 12984ft 341kts
28-Jan-18 10:39 37.996309 -122.168924 5 15180ft 350kts
28-Jan-18 10:40 38.092561 -122.153067 5 17247ft 358kts
28-Jan-18 10:41 38.186487 -122.137565 5 18969ft 366kts
28-Jan-18 10:42 38.288421 -122.120654 4 20414ft 379kts
28-Jan-18 10:43 38.391396 -122.116849 355 20450ft 398kts
28-Jan-18 10:44 38.495851 -122.123850 354 20447ft 398kts
28-Jan-18 10:45 38.601168 -122.131086 354 20447ft 398kts
28-Jan-18 10:46 38.706569 -122.138356 354 20447ft 397kts
28-Jan-18 10:47 38.810120 -122.145503 354 20446ft 397kts
28-Jan-18 10:48 38.908179 -122.150549 352 20440ft 395kts
28-Jan-18 10:49 39.003392 -122.158610 354 20455ft 396kts
28-Jan-18 10:50 39.106469 -122.165904 354 20455ft 396kts
28-Jan-18 10:51 39.210621 -122.173218 354 20457ft 397kts
28-Jan-18 10:52 39.302984 -122.179707 354 20448ft 398kts
28-Jan-18 10:53 39.397935 -122.186419 354 20447ft 398kts
28-Jan-18 10:54 39.505309 -122.194019 354 20447ft 399kts
28-Jan-18 10:55 39.610172 -122.201464 354 20447ft 399kts
28-Jan-18 10:56 39.711326 -122.208667 354 20447ft 399kts
28-Jan-18 10:57 39.817608 -122.216247 353 20446ft 399kts
28-Jan-18 10:58 39.927989 -122.224167 353 20437ft 400kts
28-Jan-18 10:59 40.034060 -122.231791 353 20436ft 400kts
28-Jan-18 11:00 40.131399 -122.244295 335 18090ft 374kts
28-Jan-18 11:01 40.226677 -122.265080 354 14423ft 368kts
28-Jan-18 11:02 40.307006 -122.272265 353 11561ft 355kts
28-Jan-18 11:03 40.386110 -122.281839 345 9985ft 259kts
28-Jan-18 11:04 40.435806 -122.335923 314 6934ft 236kts
28-Jan-18 11:05 40.476624 -122.389829 314 5018ft 210kts
28-Jan-18 11:06 40.513745 -122.439141 314 5011ft 223kts
28-Jan-18 11:07 40.561407 -122.432830 44 5084ft 229kts
28-Jan-18 11:08 40.596096 -122.386526 44 4986ft 213kts
28-Jan-18 11:09 40.627197 -122.332171 86 4986ft 222kts
28-Jan-18 11:10 40.587301 -122.295118 178 4999ft 227kts
28-Jan-18 11:11 40.535904 -122.293007 179 4991ft 234kts
28-Jan-18 11:12 40.478325 -122.290541 178 5024ft 237kts
28-Jan-18 11:13 40.419774 -122.288456 169 4987ft 221kts
28-Jan-18 11:14 40.367649 -122.267238 181 4997ft 217kts
28-Jan-18 11:15 40.311367 -122.279434 221 4670ft 203kts
28-Jan-18 11:16 40.267995 -122.324257 206 3027ft 201kts
28-Jan-18 11:17 40.245737 -122.295109 44 2961ft 134kts
28-Jan-18 11:18 40.279218 -122.292920 354 3023ft 168kts
28-Jan-18 11:19 40.319671 -122.295220 359 3004ft 160kts
28-Jan-18 11:20 40.358480 -122.295211 2 2983ft 148kts
28-Jan-18 11:21 40.395765 -122.295029 2 2600ft 166kts
28-Jan-18 11:22 40.434699 -122.294980 1 1824ft 141kts
28-Jan-18 11:23 40.467384 -122.294749 0 1225ft 134kts
28-Jan-18 11:24 40.497321 -122.294959 0 631ft 135kts
28-Jan-18 11:25 40.514257 -122.295791 273 506ft 2kts
28-Jan-18 11:26 40.514262 -122.295936 272 506ft 5kts
28-Jan-18 11:27 40.510798 -122.296335 180 506ft 16kts
28-Jan-18 11:28 40.507657 -122.298213 225 506ft 12kts
28-Jan-18 11:29 40.506099 -122.299231 229 506ft 0kts
28-Jan-18 11:30 40.506099 -122.299231 229 506ft 0kts

Navigation Log

Ident Type
Flight plan parsing failed, navigation log unavailable